sensor_id;sensor_type;location;lat;lon;timestamp;pressure;altitude;pressure_sealevel;temperature;humidity
53011;BME280;42803;55.762;38.084;2023-06-26T00:00:27;99439.44;;;14.49;100.00
53011;BME280;42803;55.762;38.084;2023-06-26T00:02:56;99445.28;;;14.45;100.00
53011;BME280;42803;55.762;38.084;2023-06-26T00:05:25;99448.81;;;14.46;100.00
53011;BME280;42803;55.762;38.084;2023-06-26T00:07:55;99438.31;;;14.46;100.00
53011;BME280;42803;55.762;38.084;2023-06-26T00:10:29;99449.44;;;14.42;100.00
53011;BME280;42803;55.762;38.084;2023-06-26T00:12:59;99440.41;;;14.36;100.00
53011;BME280;42803;55.762;38.084;2023-06-26T00:15:29;99433.22;;;14.34;100.00
53011;BME280;42803;55.762;38.084;2023-06-26T00:17:59;99446.47;;;14.35;100.00
53011;BME280;42803;55.762;38.084;2023-06-26T00:20:31;99438.59;;;14.35;100.00
53011;BME280;42803;55.762;38.084;2023-06-26T00:23:01;99432.31;;;14.33;100.00
53011;BME280;42803;55.762;38.084;2023-06-26T00:25:33;99430.53;;;14.32;100.00
53011;BME280;42803;55.762;38.084;2023-06-26T00:28:02;99440.13;;;14.32;100.00
53011;BME280;42803;55.762;38.084;2023-06-26T00:30:31;99433.16;;;14.32;100.00
53011;BME280;42803;55.762;38.084;2023-06-26T00:33:01;99441.22;;;14.35;100.00
53011;BME280;42803;55.762;38.084;2023-06-26T00:35:31;99439.38;;;14.34;100.00
53011;BME280;42803;55.762;38.084;2023-06-26T00:38:00;99437.38;;;14.30;100.00
53011;BME280;42803;55.762;38.084;2023-06-26T00:40:30;99432.88;;;14.28;100.00
53011;BME280;42803;55.762;38.084;2023-06-26T00:43:01;99433.78;;;14.28;100.00
53011;BME280;42803;55.762;38.084;2023-06-26T00:45:30;99433.84;;;14.30;100.00
53011;BME280;42803;55.762;38.084;2023-06-26T00:48:10;99433.22;;;14.34;100.00
53011;BME280;42803;55.762;38.084;2023-06-26T00:50:41;99426.63;;;14.41;100.00
53011;BME280;42803;55.762;38.084;2023-06-26T00:53:11;99424.69;;;14.51;100.00
53011;BME280;42803;55.762;38.084;2023-06-26T00:55:40;99419.47;;;14.66;100.00
53011;BME280;42803;55.762;38.084;2023-06-26T00:58:11;99421.47;;;14.85;100.00
53011;BME280;42803;55.762;38.084;2023-06-26T01:00:40;99415.16;;;15.13;100.00
53011;BME280;42803;55.762;38.084;2023-06-26T01:03:15;99413.56;;;15.46;97.83
53011;BME280;42803;55.762;38.084;2023-06-26T01:05:44;99412.50;;;15.73;95.46
53011;BME280;42803;55.762;38.084;2023-06-26T01:08:18;99412.34;;;16.03;93.36
53011;BME280;42803;55.762;38.084;2023-06-26T01:10:47;99409.38;;;16.29;92.10
53011;BME280;42803;55.762;38.084;2023-06-26T01:13:18;99408.69;;;16.50;90.92
53011;BME280;42803;55.762;38.084;2023-06-26T01:15:48;99416.59;;;16.50;90.56
53011;BME280;42803;55.762;38.084;2023-06-26T01:18:20;99413.88;;;16.32;90.55
53011;BME280;42803;55.762;38.084;2023-06-26T01:20:50;99406.78;;;16.64;90.60
53011;BME280;42803;55.762;38.084;2023-06-26T01:23:22;99407.47;;;17.29;87.50
53011;BME280;42803;55.762;38.084;2023-06-26T01:26:13;99408.31;;;17.84;84.71
53011;BME280;42803;55.762;38.084;2023-06-26T01:28:43;99402.94;;;17.45;83.30
53011;BME280;42803;55.762;38.084;2023-06-26T01:31:13;99403.53;;;16.86;85.89
53011;BME280;42803;55.762;38.084;2023-06-26T01:33:43;99413.69;;;16.62;88.30
53011;BME280;42803;55.762;38.084;2023-06-26T01:36:12;99412.97;;;16.64;88.60
53011;BME280;42803;55.762;38.084;2023-06-26T01:38:41;99406.34;;;16.72;88.71
53011;BME280;42803;55.762;38.084;2023-06-26T01:41:10;99407.81;;;16.67;88.63
53011;BME280;42803;55.762;38.084;2023-06-26T01:43:49;99411.03;;;16.27;90.16
53011;BME280;42803;55.762;38.084;2023-06-26T01:46:24;99409.03;;;15.91;92.74
53011;BME280;42803;55.762;38.084;2023-06-26T01:49:00;99412.50;;;15.73;94.13
53011;BME280;42803;55.762;38.084;2023-06-26T01:51:35;99414.06;;;15.55;96.08
53011;BME280;42803;55.762;38.084;2023-06-26T01:54:10;99413.56;;;15.46;97.84
53011;BME280;42803;55.762;38.084;2023-06-26T01:56:40;99420.00;;;15.36;99.69
53011;BME280;42803;55.762;38.084;2023-06-26T01:59:11;99418.50;;;15.25;100.00
53011;BME280;42803;55.762;38.084;2023-06-26T02:01:42;99425.94;;;15.17;100.00
53011;BME280;42803;55.762;38.084;2023-06-26T02:04:11;99421.91;;;15.07;100.00
53011;BME280;42803;55.762;38.084;2023-06-26T02:06:41;99419.09;;;15.04;100.00
53011;BME280;42803;55.762;38.084;2023-06-26T02:09:10;99419.97;;;15.05;100.00
53011;BME280;42803;55.762;38.084;2023-06-26T02:11:39;99417.34;;;15.05;100.00
53011;BME280;42803;55.762;38.084;2023-06-26T02:14:09;99428.84;;;15.07;100.00
53011;BME280;42803;55.762;38.084;2023-06-26T02:16:40;99417.34;;;15.05;100.00
53011;BME280;42803;55.762;38.084;2023-06-26T02:19:10;99420.97;;;15.07;100.00
53011;BME280;42803;55.762;38.084;2023-06-26T02:21:59;99419.41;;;15.10;100.00
53011;BME280;42803;55.762;38.084;2023-06-26T02:24:28;99427.22;;;15.09;100.00
53011;BME280;42803;55.762;38.084;2023-06-26T02:26:58;99420.06;;;15.06;100.00
53011;BME280;42803;55.762;38.084;2023-06-26T02:29:29;99422.03;;;15.10;100.00
53011;BME280;42803;55.762;38.084;2023-06-26T02:31:58;99423.31;;;15.17;100.00
53011;BME280;42803;55.762;38.084;2023-06-26T02:34:27;99417.59;;;15.24;100.00
53011;BME280;42803;55.762;38.084;2023-06-26T02:36:56;99418.09;;;15.33;100.00
53011;BME280;42803;55.762;38.084;2023-06-26T02:39:26;99423.91;;;15.43;100.00
53011;BME280;42803;55.762;38.084;2023-06-26T02:41:55;99421.59;;;15.49;100.00
53011;BME280;42803;55.762;38.084;2023-06-26T02:44:25;99425.16;;;15.49;100.00
53011;BME280;42803;55.762;38.084;2023-06-26T02:46:56;99430.75;;;15.55;100.00
53011;BME280;42803;55.762;38.084;2023-06-26T02:49:25;99425.00;;;15.63;100.00
53011;BME280;42803;55.762;38.084;2023-06-26T02:51:55;99427.56;;;15.61;100.00
53011;BME280;42803;55.762;38.084;2023-06-26T02:54:27;99418.03;;;15.63;100.00
53011;BME280;42803;55.762;38.084;2023-06-26T02:57:02;99425.41;;;15.69;100.00
53011;BME280;42803;55.762;38.084;2023-06-26T02:59:33;99423.25;;;15.78;99.92
53011;BME280;42803;55.762;38.084;2023-06-26T03:02:04;99430.09;;;15.91;98.75
53011;BME280;42803;55.762;38.084;2023-06-26T03:04:39;99429.06;;;16.03;97.83
53011;BME280;42803;55.762;38.084;2023-06-26T03:07:13;99430.44;;;16.13;96.53
53011;BME280;42803;55.762;38.084;2023-06-26T03:09:43;99429.13;;;16.21;96.40
53011;BME280;42803;55.762;38.084;2023-06-26T03:12:13;99434.53;;;16.41;95.52
53011;BME280;42803;55.762;38.084;2023-06-26T03:14:43;99432.63;;;16.54;95.13
53011;BME280;42803;55.762;38.084;2023-06-26T03:17:15;99434.34;;;16.70;94.72
53011;BME280;42803;55.762;38.084;2023-06-26T03:19:47;99429.88;;;16.86;94.16
53011;BME280;42803;55.762;38.084;2023-06-26T03:22:21;99432.09;;;16.94;94.75
53011;BME280;42803;55.762;38.084;2023-06-26T03:24:51;99430.25;;;17.10;92.58
53011;BME280;42803;55.762;38.084;2023-06-26T03:27:20;99427.22;;;17.20;90.41
53011;BME280;42803;55.762;38.084;2023-06-26T03:29:50;99424.16;;;17.28;89.70
53011;BME280;42803;55.762;38.084;2023-06-26T03:32:23;99424.94;;;17.27;89.06
53011;BME280;42803;55.762;38.084;2023-06-26T03:34:52;99417.34;;;17.34;88.48
53011;BME280;42803;55.762;38.084;2023-06-26T03:37:22;99422.53;;;17.32;87.88
53011;BME280;42803;55.762;38.084;2023-06-26T03:39:51;99418.31;;;17.36;87.91
53011;BME280;42803;55.762;38.084;2023-06-26T03:42:21;99417.13;;;17.29;88.18
53011;BME280;42803;55.762;38.084;2023-06-26T03:44:50;99419.50;;;17.24;88.30
53011;BME280;42803;55.762;38.084;2023-06-26T03:47:19;99417.44;;;17.17;88.67
53011;BME280;42803;55.762;38.084;2023-06-26T03:49:50;99414.53;;;17.13;88.82
53011;BME280;42803;55.762;38.084;2023-06-26T03:52:19;99420.59;;;17.10;89.86
53011;BME280;42803;55.762;38.084;2023-06-26T03:54:48;99418.91;;;17.12;91.23
53011;BME280;42803;55.762;38.084;2023-06-26T03:57:18;99425.03;;;17.11;90.96
53011;BME280;42803;55.762;38.084;2023-06-26T03:59:48;99420.13;;;17.19;91.01
53011;BME280;42803;55.762;38.084;2023-06-26T04:02:17;99421.94;;;17.20;91.06
53011;BME280;42803;55.762;38.084;2023-06-26T04:04:46;99422.25;;;17.44;89.91
53011;BME280;42803;55.762;38.084;2023-06-26T04:07:17;99416.44;;;17.70;88.54
53011;BME280;42803;55.762;38.084;2023-06-26T04:09:46;99410.97;;;18.42;86.50
53011;BME280;42803;55.762;38.084;2023-06-26T04:12:16;99416.06;;;19.61;82.19
53011;BME280;42803;55.762;38.084;2023-06-26T04:14:45;99421.72;;;20.63;77.65
53011;BME280;42803;55.762;38.084;2023-06-26T04:17:14;99416.50;;;21.17;74.89
53011;BME280;42803;55.762;38.084;2023-06-26T04:19:43;99420.22;;;21.77;72.47
53011;BME280;42803;55.762;38.084;2023-06-26T04:22:12;99408.44;;;22.57;69.68
53011;BME280;42803;55.762;38.084;2023-06-26T04:24:43;99420.50;;;23.44;67.21
53011;BME280;42803;55.762;38.084;2023-06-26T04:27:13;99411.63;;;24.22;64.49
53011;BME280;42803;55.762;38.084;2023-06-26T04:29:42;99414.53;;;25.25;62.02
53011;BME280;42803;55.762;38.084;2023-06-26T04:32:11;99417.00;;;25.68;58.32
53011;BME280;42803;55.762;38.084;2023-06-26T04:34:41;99420.13;;;24.45;60.76
53011;BME280;42803;55.762;38.084;2023-06-26T04:37:11;99416.28;;;23.16;63.58
53011;BME280;42803;55.762;38.084;2023-06-26T04:39:45;99418.47;;;22.36;66.52
53011;BME280;42803;55.762;38.084;2023-06-26T04:42:14;99420.69;;;21.92;68.32
53011;BME280;42803;55.762;38.084;2023-06-26T04:44:43;99423.63;;;21.71;69.46
53011;BME280;42803;55.762;38.084;2023-06-26T04:47:13;99421.78;;;21.70;69.79
53011;BME280;42803;55.762;38.084;2023-06-26T04:49:43;99416.13;;;21.59;69.03
53011;BME280;42803;55.762;38.084;2023-06-26T04:52:13;99419.16;;;21.43;69.34
53011;BME280;42803;55.762;38.084;2023-06-26T04:54:44;99411.72;;;21.33;68.94
53011;BME280;42803;55.762;38.084;2023-06-26T04:57:13;99412.94;;;21.42;69.21
53011;BME280;42803;55.762;38.084;2023-06-26T04:59:42;99407.81;;;21.22;67.90
53011;BME280;42803;55.762;38.084;2023-06-26T05:02:12;99407.19;;;21.03;68.65
53011;BME280;42803;55.762;38.084;2023-06-26T05:04:42;99409.41;;;21.16;69.14
53011;BME280;42803;55.762;38.084;2023-06-26T05:07:12;99400.56;;;21.17;68.53
53011;BME280;42803;55.762;38.084;2023-06-26T05:09:41;99407.59;;;21.15;65.77
53011;BME280;42803;55.762;38.084;2023-06-26T05:12:12;99410.84;;;21.07;65.44
53011;BME280;42803;55.762;38.084;2023-06-26T05:14:41;99408.94;;;20.77;64.63
53011;BME280;42803;55.762;38.084;2023-06-26T05:17:10;99411.75;;;20.82;64.64
53011;BME280;42803;55.762;38.084;2023-06-26T05:19:39;99413.78;;;20.89;64.32
53011;BME280;42803;55.762;38.084;2023-06-26T05:22:09;99414.84;;;20.68;64.79
53011;BME280;42803;55.762;38.084;2023-06-26T05:24:39;99406.81;;;20.67;65.53
53011;BME280;42803;55.762;38.084;2023-06-26T05:27:29;99411.09;;;20.63;65.32
53011;BME280;42803;55.762;38.084;2023-06-26T05:32:46;99407.75;;;20.45;66.17
53011;BME280;42803;55.762;38.084;2023-06-26T05:35:16;99416.94;;;20.53;66.53
53011;BME280;42803;55.762;38.084;2023-06-26T05:37:48;99412.13;;;20.43;65.74
53011;BME280;42803;55.762;38.084;2023-06-26T05:40:19;99410.91;;;20.57;66.61
53011;BME280;42803;55.762;38.084;2023-06-26T05:43:08;99407.50;;;20.61;65.74
53011;BME280;42803;55.762;38.084;2023-06-26T05:45:38;99410.44;;;20.69;67.05
53011;BME280;42803;55.762;38.084;2023-06-26T05:48:07;99408.16;;;20.80;66.86
53011;BME280;42803;55.762;38.084;2023-06-26T05:50:58;99410.75;;;20.78;66.83
53011;BME280;42803;55.762;38.084;2023-06-26T05:53:28;99409.00;;;20.53;68.02
53011;BME280;42803;55.762;38.084;2023-06-26T05:56:16;99408.22;;;20.33;68.53
53011;BME280;42803;55.762;38.084;2023-06-26T05:59:07;99408.94;;;20.29;69.19
53011;BME280;42803;55.762;38.084;2023-06-26T06:01:37;99405.69;;;20.36;68.56
53011;BME280;42803;55.762;38.084;2023-06-26T06:04:06;99414.19;;;20.50;67.99
53011;BME280;42803;55.762;38.084;2023-06-26T06:09:23;99410.91;;;20.57;68.99
53011;BME280;42803;55.762;38.084;2023-06-26T06:12:11;99405.84;;;20.90;68.12
53011;BME280;42803;55.762;38.084;2023-06-26T06:14:41;99402.97;;;21.10;67.70
53011;BME280;42803;55.762;38.084;2023-06-26T06:19:58;99402.59;;;21.25;64.85
53011;BME280;42803;55.762;38.084;2023-06-26T06:22:27;99400.47;;;21.40;65.01
53011;BME280;42803;55.762;38.084;2023-06-26T06:24:56;99399.75;;;21.18;65.16
53011;BME280;42803;55.762;38.084;2023-06-26T06:27:26;99399.63;;;21.41;65.16
53011;BME280;42803;55.762;38.084;2023-06-26T06:29:56;99401.06;;;21.58;64.06
53011;BME280;42803;55.762;38.084;2023-06-26T06:32:44;99398.59;;;21.64;63.48
53011;BME280;42803;55.762;38.084;2023-06-26T06:35:13;99406.72;;;21.69;61.71
53011;BME280;42803;55.762;38.084;2023-06-26T06:37:42;99388.00;;;21.95;59.25
53011;BME280;42803;55.762;38.084;2023-06-26T06:40:12;99391.31;;;22.16;59.35
53011;BME280;42803;55.762;38.084;2023-06-26T06:42:41;99392.63;;;22.30;59.27
53011;BME280;42803;55.762;38.084;2023-06-26T06:47:59;99393.94;;;22.46;58.29
53011;BME280;42803;55.762;38.084;2023-06-26T06:50:29;99389.63;;;22.50;55.92
53011;BME280;42803;55.762;38.084;2023-06-26T06:52:58;99386.16;;;22.52;55.61
53011;BME280;42803;55.762;38.084;2023-06-26T06:55:45;99383.16;;;22.73;55.56
53011;BME280;42803;55.762;38.084;2023-06-26T06:58:14;99384.81;;;22.70;55.73
53011;BME280;42803;55.762;38.084;2023-06-26T07:00:48;99375.28;;;22.78;54.96
53011;BME280;42803;55.762;38.084;2023-06-26T07:03:19;99381.22;;;22.99;55.07
53011;BME280;42803;55.762;38.084;2023-06-26T07:05:49;99380.69;;;23.13;54.00
53011;BME280;42803;55.762;38.084;2023-06-26T07:08:36;99386.91;;;23.15;54.45
53011;BME280;42803;55.762;38.084;2023-06-26T07:11:05;99375.13;;;23.40;53.15
53011;BME280;42803;55.762;38.084;2023-06-26T07:13:34;99377.97;;;23.49;53.01
53011;BME280;42803;55.762;38.084;2023-06-26T07:18:53;99373.88;;;23.25;52.11
53011;BME280;42803;55.762;38.084;2023-06-26T07:21:41;99378.97;;;23.52;53.14
53011;BME280;42803;55.762;38.084;2023-06-26T07:24:12;99375.97;;;23.76;50.70
53011;BME280;42803;55.762;38.084;2023-06-26T07:27:00;99370.16;;;23.56;50.49
53011;BME280;42803;55.762;38.084;2023-06-26T07:35:23;99366.59;;;23.56;51.31
53011;BME280;42803;55.762;38.084;2023-06-26T07:37:55;99361.38;;;23.60;50.86
53011;BME280;42803;55.762;38.084;2023-06-26T07:40:26;99359.19;;;23.80;50.40
53011;BME280;42803;55.762;38.084;2023-06-26T07:43:13;99355.75;;;23.86;49.15
53011;BME280;42803;55.762;38.084;2023-06-26T07:49:09;99352.19;;;23.86;49.58
53011;BME280;42803;55.762;38.084;2023-06-26T07:54:43;99349.59;;;24.78;48.95
53011;BME280;42803;55.762;38.084;2023-06-26T07:57:12;99354.25;;;24.90;48.25
53011;BME280;42803;55.762;38.084;2023-06-26T08:00:00;99349.19;;;25.07;46.19
53011;BME280;42803;55.762;38.084;2023-06-26T08:02:59;99352.47;;;24.89;46.65
53011;BME280;42803;55.762;38.084;2023-06-26T08:06:02;99345.41;;;25.48;45.83
53011;BME280;42803;55.762;38.084;2023-06-26T08:08:32;99347.69;;;25.21;45.51
53011;BME280;42803;55.762;38.084;2023-06-26T08:11:01;99338.19;;;25.40;45.00
53011;BME280;42803;55.762;38.084;2023-06-26T08:13:30;99335.38;;;25.31;45.94
53011;BME280;42803;55.762;38.084;2023-06-26T08:19:24;99345.22;;;24.82;44.57
53011;BME280;42803;55.762;38.084;2023-06-26T08:21:54;99340.63;;;24.73;44.11
53011;BME280;42803;55.762;38.084;2023-06-26T08:24:24;99345.97;;;24.74;43.70
53011;BME280;42803;55.762;38.084;2023-06-26T08:26:53;99341.16;;;25.05;44.29
53011;BME280;42803;55.762;38.084;2023-06-26T08:29:22;99334.00;;;25.60;42.60
53011;BME280;42803;55.762;38.084;2023-06-26T08:31:51;99337.06;;;25.85;42.07
53011;BME280;42803;55.762;38.084;2023-06-26T08:34:37;99331.63;;;26.48;41.32
53011;BME280;42803;55.762;38.084;2023-06-26T08:37:08;99339.25;;;27.05;39.48
53011;BME280;42803;55.762;38.084;2023-06-26T08:39:37;99345.75;;;27.30;39.67
53011;BME280;42803;55.762;38.084;2023-06-26T08:43:01;99339.28;;;27.06;39.73
53011;BME280;42803;55.762;38.084;2023-06-26T08:48:20;99330.56;;;26.40;38.47
53011;BME280;42803;55.762;38.084;2023-06-26T08:51:09;99328.31;;;26.77;39.60
53011;BME280;42803;55.762;38.084;2023-06-26T08:56:54;99330.41;;;26.25;39.29
53011;BME280;42803;55.762;38.084;2023-06-26T08:59:25;99331.84;;;26.71;39.34
53011;BME280;42803;55.762;38.084;2023-06-26T09:01:54;99332.81;;;26.81;38.31
53011;BME280;42803;55.762;38.084;2023-06-26T09:07:11;99335.66;;;25.50;40.03
53011;BME280;42803;55.762;38.084;2023-06-26T09:09:43;99324.59;;;25.26;39.83
53011;BME280;42803;55.762;38.084;2023-06-26T09:12:13;99322.84;;;25.87;40.00
53011;BME280;42803;55.762;38.084;2023-06-26T09:18:07;99315.75;;;27.87;37.79
53011;BME280;42803;55.762;38.084;2023-06-26T09:20:36;99320.97;;;27.69;37.81
53011;BME280;42803;55.762;38.084;2023-06-26T09:23:24;99310.38;;;27.87;37.63
53011;BME280;42803;55.762;38.084;2023-06-26T09:25:55;99314.97;;;28.31;37.33
53011;BME280;42803;55.762;38.084;2023-06-26T09:28:25;99313.38;;;28.98;35.67
53011;BME280;42803;55.762;38.084;2023-06-26T09:30:54;99315.16;;;28.99;34.72
53011;BME280;42803;55.762;38.084;2023-06-26T09:33:23;99308.88;;;29.03;35.69
53011;BME280;42803;55.762;38.084;2023-06-26T09:36:29;99303.44;;;28.54;36.05
53011;BME280;42803;55.762;38.084;2023-06-26T09:39:07;99309.50;;;27.90;37.04
53011;BME280;42803;55.762;38.084;2023-06-26T09:41:42;99302.31;;;27.87;37.34
53011;BME280;42803;55.762;38.084;2023-06-26T09:44:14;99300.47;;;27.77;37.17
53011;BME280;42803;55.762;38.084;2023-06-26T09:46:45;99307.72;;;27.93;37.41
53011;BME280;42803;55.762;38.084;2023-06-26T09:49:14;99314.13;;;26.89;38.12
53011;BME280;42803;55.762;38.084;2023-06-26T09:51:44;99317.50;;;26.66;38.60
53011;BME280;42803;55.762;38.084;2023-06-26T09:54:16;99307.16;;;26.18;38.31
53011;BME280;42803;55.762;38.084;2023-06-26T09:56:47;99305.53;;;25.64;39.87
53011;BME280;42803;55.762;38.084;2023-06-26T09:59:17;99302.03;;;25.66;40.51
53011;BME280;42803;55.762;38.084;2023-06-26T10:01:46;99307.66;;;25.85;40.34
53011;BME280;42803;55.762;38.084;2023-06-26T10:04:16;99307.03;;;26.09;40.26
53011;BME280;42803;55.762;38.084;2023-06-26T10:06:46;99304.53;;;25.56;40.31
53011;BME280;42803;55.762;38.084;2023-06-26T10:09:19;99300.53;;;25.24;40.51
53011;BME280;42803;55.762;38.084;2023-06-26T10:11:55;99297.50;;;25.03;41.20
53011;BME280;42803;55.762;38.084;2023-06-26T10:14:43;99304.97;;;24.71;41.82
53011;BME280;42803;55.762;38.084;2023-06-26T10:17:16;99299.25;;;25.01;42.24
53011;BME280;42803;55.762;38.084;2023-06-26T10:19:48;99290.41;;;25.03;41.64
53011;BME280;42803;55.762;38.084;2023-06-26T10:22:20;99294.94;;;25.09;42.18
53011;BME280;42803;55.762;38.084;2023-06-26T10:24:51;99297.38;;;24.95;43.11
53011;BME280;42803;55.762;38.084;2023-06-26T10:27:24;99294.81;;;25.01;42.01
53011;BME280;42803;55.762;38.084;2023-06-26T10:29:56;99285.84;;;24.96;40.55
53011;BME280;42803;55.762;38.084;2023-06-26T10:32:27;99278.78;;;25.01;40.41
53011;BME280;42803;55.762;38.084;2023-06-26T10:34:58;99283.50;;;25.15;40.09
53011;BME280;42803;55.762;38.084;2023-06-26T10:37:49;99274.59;;;25.17;39.44
53011;BME280;42803;55.762;38.084;2023-06-26T10:40:25;99276.00;;;24.95;39.31
53011;BME280;42803;55.762;38.084;2023-06-26T10:43:15;99276.00;;;24.94;40.14
53011;BME280;42803;55.762;38.084;2023-06-26T10:45:46;99268.59;;;25.32;39.61
53011;BME280;42803;55.762;38.084;2023-06-26T10:48:20;99264.41;;;25.52;39.95
53011;BME280;42803;55.762;38.084;2023-06-26T10:50:50;99270.00;;;25.69;40.29
53011;BME280;42803;55.762;38.084;2023-06-26T10:53:23;99269.31;;;25.84;39.03
53011;BME280;42803;55.762;38.084;2023-06-26T10:55:56;99268.25;;;25.74;38.13
53011;BME280;42803;55.762;38.084;2023-06-26T10:58:44;99255.47;;;25.49;37.89
53011;BME280;42803;55.762;38.084;2023-06-26T11:01:17;99255.38;;;25.43;38.50
53011;BME280;42803;55.762;38.084;2023-06-26T11:03:49;99266.31;;;25.02;38.69
53011;BME280;42803;55.762;38.084;2023-06-26T11:06:31;99255.84;;;25.13;38.70
53011;BME280;42803;55.762;38.084;2023-06-26T11:09:01;99249.88;;;25.32;38.12
53011;BME280;42803;55.762;38.084;2023-06-26T11:11:56;99249.59;;;25.76;37.67
53011;BME280;42803;55.762;38.084;2023-06-26T11:14:35;99248.94;;;25.97;37.68
53011;BME280;42803;55.762;38.084;2023-06-26T11:17:04;99249.94;;;26.04;37.47
53011;BME280;42803;55.762;38.084;2023-06-26T11:19:35;99247.75;;;25.75;38.07
53011;BME280;42803;55.762;38.084;2023-06-26T11:22:04;99247.75;;;25.75;37.37
53011;BME280;42803;55.762;38.084;2023-06-26T11:24:36;99244.97;;;25.64;38.00
53011;BME280;42803;55.762;38.084;2023-06-26T11:27:06;99253.91;;;25.04;39.22
53011;BME280;42803;55.762;38.084;2023-06-26T11:29:55;99255.97;;;24.67;40.46
53011;BME280;42803;55.762;38.084;2023-06-26T11:32:26;99257.81;;;24.70;40.52
53011;BME280;42803;55.762;38.084;2023-06-26T11:34:56;99250.19;;;24.94;40.51
53011;BME280;42803;55.762;38.084;2023-06-26T11:37:25;99252.19;;;25.09;40.33
53011;BME280;42803;55.762;38.084;2023-06-26T11:39:55;99232.56;;;25.05;39.69
53011;BME280;42803;55.762;38.084;2023-06-26T11:42:24;99233.81;;;25.29;39.58
53011;BME280;42803;55.762;38.084;2023-06-26T11:44:55;99233.75;;;25.94;38.87
53011;BME280;42803;55.762;38.084;2023-06-26T11:47:24;99231.72;;;26.53;38.27
53011;BME280;42803;55.762;38.084;2023-06-26T11:49:53;99234.59;;;26.77;38.36
53011;BME280;42803;55.762;38.084;2023-06-26T11:52:24;99230.50;;;26.24;38.94
53011;BME280;42803;55.762;38.084;2023-06-26T11:54:54;99232.69;;;25.79;40.40
53011;BME280;42803;55.762;38.084;2023-06-26T11:57:41;99238.34;;;25.36;41.46
53011;BME280;42803;55.762;38.084;2023-06-26T12:00:31;99228.75;;;24.88;42.04
53011;BME280;42803;55.762;38.084;2023-06-26T12:05:49;99227.63;;;24.75;42.06
53011;BME280;42803;55.762;38.084;2023-06-26T12:08:20;99223.81;;;24.60;42.55
53011;BME280;42803;55.762;38.084;2023-06-26T12:10:50;99217.25;;;24.95;42.61
53011;BME280;42803;55.762;38.084;2023-06-26T12:13:37;99218.31;;;25.07;42.13
53011;BME280;42803;55.762;38.084;2023-06-26T12:16:10;99225.88;;;25.35;41.79
53011;BME280;42803;55.762;38.084;2023-06-26T12:18:39;99218.81;;;25.40;41.70
53011;BME280;42803;55.762;38.084;2023-06-26T12:21:27;99216.13;;;25.39;41.62
53011;BME280;42803;55.762;38.084;2023-06-26T12:24:00;99213.59;;;25.49;42.02
53011;BME280;42803;55.762;38.084;2023-06-26T12:26:32;99212.91;;;25.67;41.58
53011;BME280;42803;55.762;38.084;2023-06-26T12:29:07;99210.50;;;25.84;41.27
53011;BME280;42803;55.762;38.084;2023-06-26T12:31:40;99205.38;;;26.09;40.94
53011;BME280;42803;55.762;38.084;2023-06-26T12:34:10;99210.28;;;25.69;40.77
53011;BME280;42803;55.762;38.084;2023-06-26T12:36:40;99201.09;;;25.45;40.63
53011;BME280;42803;55.762;38.084;2023-06-26T12:39:15;99202.09;;;25.55;40.49
53011;BME280;42803;55.762;38.084;2023-06-26T12:41:51;99200.25;;;25.49;39.55
53011;BME280;42803;55.762;38.084;2023-06-26T12:44:31;99193.66;;;25.23;39.67
53011;BME280;42803;55.762;38.084;2023-06-26T12:47:25;99193.81;;;25.35;39.49
53011;BME280;42803;55.762;38.084;2023-06-26T12:50:44;99198.44;;;25.48;39.72
53011;BME280;42803;55.762;38.084;2023-06-26T12:53:29;99189.28;;;25.28;39.49
53011;BME280;42803;55.762;38.084;2023-06-26T12:56:09;99198.31;;;25.39;40.19
53011;BME280;42803;55.762;38.084;2023-06-26T12:58:40;99182.00;;;25.15;40.62
53011;BME280;42803;55.762;38.084;2023-06-26T13:01:12;99186.25;;;25.07;40.99
53011;BME280;42803;55.762;38.084;2023-06-26T13:03:46;99185.47;;;25.11;40.39
53011;BME280;42803;55.762;38.084;2023-06-26T13:06:22;99180.31;;;25.23;40.17
53011;BME280;42803;55.762;38.084;2023-06-26T13:08:53;99179.41;;;25.22;40.45
53011;BME280;42803;55.762;38.084;2023-06-26T13:11:29;99174.97;;;25.24;40.81
53011;BME280;42803;55.762;38.084;2023-06-26T13:14:16;99172.34;;;25.27;39.63
53011;BME280;42803;55.762;38.084;2023-06-26T13:16:48;99162.16;;;25.00;39.35
53011;BME280;42803;55.762;38.084;2023-06-26T13:19:25;99164.72;;;24.94;39.90
53011;BME280;42803;55.762;38.084;2023-06-26T13:21:59;99156.88;;;25.07;39.97
53011;BME280;42803;55.762;38.084;2023-06-26T13:24:32;99166.84;;;25.15;39.96
53011;BME280;42803;55.762;38.084;2023-06-26T13:27:05;99157.97;;;25.18;40.40
53011;BME280;42803;55.762;38.084;2023-06-26T13:29:44;99153.66;;;25.27;40.12
53011;BME280;42803;55.762;38.084;2023-06-26T13:32:18;99152.66;;;25.21;40.68
53011;BME280;42803;55.762;38.084;2023-06-26T13:34:56;99142.75;;;25.12;40.08
53011;BME280;42803;55.762;38.084;2023-06-26T13:37:31;99152.00;;;25.40;40.97
53011;BME280;42803;55.762;38.084;2023-06-26T13:40:20;99156.59;;;25.49;40.04
53011;BME280;42803;55.762;38.084;2023-06-26T13:42:49;99144.66;;;25.21;39.63
53011;BME280;42803;55.762;38.084;2023-06-26T13:45:22;99146.56;;;25.33;39.99
53011;BME280;42803;55.762;38.084;2023-06-26T13:48:19;99147.38;;;25.24;39.33
53011;BME280;42803;55.762;38.084;2023-06-26T13:50:53;99145.50;;;25.17;38.93
53011;BME280;42803;55.762;38.084;2023-06-26T13:53:27;99141.22;;;25.33;39.27
53011;BME280;42803;55.762;38.084;2023-06-26T13:56:03;99146.81;;;25.52;38.04
53011;BME280;42803;55.762;38.084;2023-06-26T13:58:35;99139.88;;;25.71;38.26
53011;BME280;42803;55.762;38.084;2023-06-26T14:01:06;99144.56;;;25.89;38.42
53011;BME280;42803;55.762;38.084;2023-06-26T14:03:40;99143.63;;;25.84;38.52